sensor_id;sensor_type;location;lat;lon;timestamp;pressure;altitude;pressure_sealevel;temperature;humidity
22104;BME280;11218;48.886;9.426;2022-11-18T00:01:22;96271.06;;;9.03;91.79
22104;BME280;11218;48.886;9.426;2022-11-18T00:03:52;96275.63;;;9.02;91.93
22104;BME280;11218;48.886;9.426;2022-11-18T00:06:22;96276.44;;;9.03;91.45
22104;BME280;11218;48.886;9.426;2022-11-18T00:08:51;96275.34;;;9.04;91.74
22104;BME280;11218;48.886;9.426;2022-11-18T00:11:20;96272.38;;;9.05;91.54
22104;BME280;11218;48.886;9.426;2022-11-18T00:14:10;96264.00;;;9.12;89.66
22104;BME280;11218;48.886;9.426;2022-11-18T00:16:52;96255.44;;;9.10;90.09
22104;BME280;11218;48.886;9.426;2022-11-18T00:19:24;96258.16;;;9.05;89.76
22104;BME280;11218;48.886;9.426;2022-11-18T00:21:55;96260.34;;;9.03;90.30
22104;BME280;11218;48.886;9.426;2022-11-18T00:24:24;96264.16;;;8.97;90.75
22104;BME280;11218;48.886;9.426;2022-11-18T00:26:53;96262.25;;;8.97;90.86
22104;BME280;11218;48.886;9.426;2022-11-18T00:29:22;96264.44;;;8.95;90.90
22104;BME280;11218;48.886;9.426;2022-11-18T00:31:54;96270.88;;;8.94;90.89
22104;BME280;11218;48.886;9.426;2022-11-18T00:34:24;96271.69;;;8.95;90.70
22104;BME280;11218;48.886;9.426;2022-11-18T00:36:53;96275.44;;;8.94;90.74
22104;BME280;11218;48.886;9.426;2022-11-18T00:39:21;96268.19;;;8.94;90.89
22104;BME280;11218;48.886;9.426;2022-11-18T00:41:49;96278.13;;;8.94;90.89
22104;BME280;11218;48.886;9.426;2022-11-18T00:44:35;96272.75;;;8.94;91.47
22104;BME280;11218;48.886;9.426;2022-11-18T00:47:03;96276.84;;;8.91;91.30
22104;BME280;11218;48.886;9.426;2022-11-18T00:49:33;96268.78;;;8.91;90.98
22104;BME280;11218;48.886;9.426;2022-11-18T00:52:01;96264.00;;;8.88;91.58
22104;BME280;11218;48.886;9.426;2022-11-18T00:54:29;96270.97;;;8.89;91.58
22104;BME280;11218;48.886;9.426;2022-11-18T00:56:57;96272.31;;;8.86;91.85
22104;BME280;11218;48.886;9.426;2022-11-18T00:59:25;96265.59;;;8.89;91.74
22104;BME280;11218;48.886;9.426;2022-11-18T01:01:53;96273.63;;;8.89;92.58
22104;BME280;11218;48.886;9.426;2022-11-18T01:04:22;96284.09;;;8.91;92.17
22104;BME280;11218;48.886;9.426;2022-11-18T01:06:51;96276.53;;;8.93;92.02
22104;BME280;11218;48.886;9.426;2022-11-18T01:09:19;96280.28;;;8.92;92.51
22104;BME280;11218;48.886;9.426;2022-11-18T01:11:47;96288.66;;;8.90;92.25
22104;BME280;11218;48.886;9.426;2022-11-18T01:14:32;96277.13;;;8.89;92.11
22104;BME280;11218;48.886;9.426;2022-11-18T01:17:00;96284.66;;;8.87;92.73
22104;BME280;11218;48.886;9.426;2022-11-18T01:19:28;96288.00;;;8.98;92.39
22104;BME280;11218;48.886;9.426;2022-11-18T01:21:58;96292.94;;;8.91;92.31
22104;BME280;11218;48.886;9.426;2022-11-18T01:24:29;96288.94;;;8.88;92.04
22104;BME280;11218;48.886;9.426;2022-11-18T01:26:57;96287.34;;;8.87;92.36
22104;BME280;11218;48.886;9.426;2022-11-18T01:29:25;96284.66;;;8.87;92.15
22104;BME280;11218;48.886;9.426;2022-11-18T01:31:53;96292.69;;;8.87;92.37
22104;BME280;11218;48.886;9.426;2022-11-18T01:34:41;96294.59;;;8.87;92.80
22104;BME280;11218;48.886;9.426;2022-11-18T01:37:11;96283.06;;;8.86;92.64
22104;BME280;11218;48.886;9.426;2022-11-18T01:39:40;96295.09;;;8.89;92.42
22104;BME280;11218;48.886;9.426;2022-11-18T01:42:12;96294.31;;;8.88;92.54
22104;BME280;11218;48.886;9.426;2022-11-18T01:45:03;96291.09;;;8.86;92.53
22104;BME280;11218;48.886;9.426;2022-11-18T01:47:39;96290.03;;;8.87;92.35
22104;BME280;11218;48.886;9.426;2022-11-18T01:50:09;96291.91;;;8.87;92.52
22104;BME280;11218;48.886;9.426;2022-11-18T01:52:40;96295.94;;;8.84;92.58
22104;BME280;11218;48.886;9.426;2022-11-18T01:55:20;96296.22;;;8.83;93.19
22104;BME280;11218;48.886;9.426;2022-11-18T01:57:55;96296.50;;;8.81;92.56
22104;BME280;11218;48.886;9.426;2022-11-18T02:00:25;96300.50;;;8.84;92.79
22104;BME280;11218;48.886;9.426;2022-11-18T02:02:53;96298.59;;;8.89;92.82
22104;BME280;11218;48.886;9.426;2022-11-18T02:05:23;96294.88;;;8.85;92.65
22104;BME280;11218;48.886;9.426;2022-11-18T02:07:54;96307.47;;;8.85;93.22
22104;BME280;11218;48.886;9.426;2022-11-18T02:10:23;96304.22;;;8.88;92.66
22104;BME280;11218;48.886;9.426;2022-11-18T02:12:53;96317.66;;;8.88;92.85
22104;BME280;11218;48.886;9.426;2022-11-18T02:15:30;96316.56;;;8.89;92.80
22104;BME280;11218;48.886;9.426;2022-11-18T02:18:05;96317.66;;;8.88;92.68
22104;BME280;11218;48.886;9.426;2022-11-18T02:20:38;96325.41;;;8.89;93.08
22104;BME280;11218;48.886;9.426;2022-11-18T02:26:48;96333.75;;;8.88;92.07
22104;BME280;11218;48.886;9.426;2022-11-18T02:29:25;96334.31;;;8.85;93.41
22104;BME280;11218;48.886;9.426;2022-11-18T02:31:57;96331.06;;;8.88;93.18
22104;BME280;11218;48.886;9.426;2022-11-18T02:34:36;96339.41;;;8.86;93.15
22104;BME280;11218;48.886;9.426;2022-11-18T02:37:13;96335.91;;;8.86;92.64
22104;BME280;11218;48.886;9.426;2022-11-18T02:39:46;96342.63;;;8.83;93.04
22104;BME280;11218;48.886;9.426;2022-11-18T02:42:19;96337.84;;;8.80;93.77
22104;BME280;11218;48.886;9.426;2022-11-18T02:44:53;96342.63;;;8.83;93.23
22104;BME280;11218;48.886;9.426;2022-11-18T02:47:26;96340.22;;;8.82;93.50
22104;BME280;11218;48.886;9.426;2022-11-18T02:49:59;96336.22;;;8.79;93.49
22104;BME280;11218;48.886;9.426;2022-11-18T02:52:30;96339.16;;;8.83;93.93
22104;BME280;11218;48.886;9.426;2022-11-18T02:54:59;96338.34;;;8.82;93.03
22104;BME280;11218;48.886;9.426;2022-11-18T02:57:30;96333.00;;;8.82;93.41
22104;BME280;11218;48.886;9.426;2022-11-18T03:00:03;96333.81;;;8.78;93.62
22104;BME280;11218;48.886;9.426;2022-11-18T03:02:40;96332.78;;;8.74;93.49
22104;BME280;11218;48.886;9.426;2022-11-18T03:05:12;96341.31;;;8.81;93.70
22104;BME280;11218;48.886;9.426;2022-11-18T03:07:45;96344.59;;;8.73;93.85
22104;BME280;11218;48.886;9.426;2022-11-18T03:10:16;96346.44;;;8.77;94.06
22104;BME280;11218;48.886;9.426;2022-11-18T03:12:53;96346.69;;;8.81;93.77
22104;BME280;11218;48.886;9.426;2022-11-18T03:15:33;96355.31;;;8.73;93.98
22104;BME280;11218;48.886;9.426;2022-11-18T03:18:13;96355.88;;;8.70;94.60
22104;BME280;11218;48.886;9.426;2022-11-18T03:20:46;96360.97;;;8.71;94.62
22104;BME280;11218;48.886;9.426;2022-11-18T03:23:23;96367.94;;;8.72;94.66
22104;BME280;11218;48.886;9.426;2022-11-18T03:25:58;96373.84;;;8.69;94.47
22104;BME280;11218;48.886;9.426;2022-11-18T03:28:34;96380.81;;;8.70;94.44
22104;BME280;11218;48.886;9.426;2022-11-18T03:31:08;96378.94;;;8.71;94.99
22104;BME280;11218;48.886;9.426;2022-11-18T03:33:44;96390.47;;;8.71;94.79
22104;BME280;11218;48.886;9.426;2022-11-18T03:36:15;96389.41;;;8.72;95.06
22104;BME280;11218;48.886;9.426;2022-11-18T03:38:50;96395.84;;;8.71;94.50
22104;BME280;11218;48.886;9.426;2022-11-18T03:41:23;96395.31;;;8.69;94.82
22104;BME280;11218;48.886;9.426;2022-11-18T03:43:59;96397.44;;;8.72;94.74
22104;BME280;11218;48.886;9.426;2022-11-18T03:46:34;96413.78;;;8.76;94.64
22104;BME280;11218;48.886;9.426;2022-11-18T03:49:07;96408.13;;;8.77;94.44
22104;BME280;11218;48.886;9.426;2022-11-18T03:51:41;96420.19;;;8.80;93.92
22104;BME280;11218;48.886;9.426;2022-11-18T03:54:13;96423.97;;;8.74;94.48
22104;BME280;11218;48.886;9.426;2022-11-18T03:56:48;96430.72;;;8.71;94.51
22104;BME280;11218;48.886;9.426;2022-11-18T03:59:19;96430.72;;;8.71;94.36
22104;BME280;11218;48.886;9.426;2022-11-18T04:01:52;96430.44;;;8.73;94.03
22104;BME280;11218;48.886;9.426;2022-11-18T04:04:23;96437.44;;;8.69;94.50
22104;BME280;11218;48.886;9.426;2022-11-18T04:06:56;96437.69;;;8.67;94.33
22104;BME280;11218;48.886;9.426;2022-11-18T04:09:31;96438.78;;;8.66;94.38
22104;BME280;11218;48.886;9.426;2022-11-18T04:12:06;96451.63;;;8.69;94.69
22104;BME280;11218;48.886;9.426;2022-11-18T04:14:38;96438.81;;;8.61;94.92
22104;BME280;11218;48.886;9.426;2022-11-18T04:17:09;96443.63;;;8.64;95.01
22104;BME280;11218;48.886;9.426;2022-11-18T04:19:38;96452.97;;;8.72;94.91
22104;BME280;11218;48.886;9.426;2022-11-18T04:22:07;96448.72;;;8.61;94.40
22104;BME280;11218;48.886;9.426;2022-11-18T04:24:35;96446.03;;;8.66;95.14
22104;BME280;11218;48.886;9.426;2022-11-18T04:27:04;96442.28;;;8.62;94.40
22104;BME280;11218;48.886;9.426;2022-11-18T04:29:33;96445.25;;;8.60;94.73
22104;BME280;11218;48.886;9.426;2022-11-18T04:32:04;96450.38;;;8.56;94.90
22104;BME280;11218;48.886;9.426;2022-11-18T04:34:36;96447.44;;;8.53;94.99
22104;BME280;11218;48.886;9.426;2022-11-18T04:37:06;96457.34;;;8.57;95.15
22104;BME280;11218;48.886;9.426;2022-11-18T04:39:34;96460.56;;;8.54;95.09
22104;BME280;11218;48.886;9.426;2022-11-18T04:42:02;96457.91;;;8.49;94.91
22104;BME280;11218;48.886;9.426;2022-11-18T04:44:31;96463.53;;;8.53;95.37
22104;BME280;11218;48.886;9.426;2022-11-18T04:47:02;96460.34;;;8.46;95.40
22104;BME280;11218;48.886;9.426;2022-11-18T04:49:32;96457.69;;;8.41;95.15
22104;BME280;11218;48.886;9.426;2022-11-18T04:52:02;96472.38;;;8.53;94.80
22104;BME280;11218;48.886;9.426;2022-11-18T04:54:30;96463.31;;;8.39;94.20
22104;BME280;11218;48.886;9.426;2022-11-18T04:56:58;96464.09;;;8.45;95.04
22104;BME280;11218;48.886;9.426;2022-11-18T04:59:28;96468.66;;;8.44;94.72
22104;BME280;11218;48.886;9.426;2022-11-18T05:01:57;96473.47;;;8.47;95.23
22104;BME280;11218;48.886;9.426;2022-11-18T05:04:28;96473.47;;;8.42;94.34
22104;BME280;11218;48.886;9.426;2022-11-18T05:06:57;96476.16;;;8.42;94.85
22104;BME280;11218;48.886;9.426;2022-11-18T05:09:28;96472.69;;;8.42;94.79
22104;BME280;11218;48.886;9.426;2022-11-18T05:11:58;96484.47;;;8.41;94.52
22104;BME280;11218;48.886;9.426;2022-11-18T05:14:46;96478.06;;;8.37;93.90
22104;BME280;11218;48.886;9.426;2022-11-18T05:17:17;96481.28;;;8.34;94.38
22104;BME280;11218;48.886;9.426;2022-11-18T05:19:45;96486.38;;;8.30;94.42
22104;BME280;11218;48.886;9.426;2022-11-18T05:22:13;96492.25;;;8.32;94.36
22104;BME280;11218;48.886;9.426;2022-11-18T05:24:43;96489.59;;;8.27;93.82
22104;BME280;11218;48.886;9.426;2022-11-18T05:27:12;96497.38;;;8.29;93.89
22104;BME280;11218;48.886;9.426;2022-11-18T05:29:40;96498.44;;;8.28;94.14
22104;BME280;11218;48.886;9.426;2022-11-18T05:32:08;96504.88;;;8.27;93.80
22104;BME280;11218;48.886;9.426;2022-11-18T05:35:14;96487.72;;;8.22;94.10
22104;BME280;11218;48.886;9.426;2022-11-18T05:37:43;96502.19;;;8.27;93.30
22104;BME280;11218;48.886;9.426;2022-11-18T05:40:12;96501.91;;;8.28;92.74
22104;BME280;11218;48.886;9.426;2022-11-18T05:42:41;96505.69;;;8.27;92.72
22104;BME280;11218;48.886;9.426;2022-11-18T05:45:26;96509.19;;;8.22;92.96
22104;BME280;11218;48.886;9.426;2022-11-18T05:47:54;96508.63;;;8.20;93.21
22104;BME280;11218;48.886;9.426;2022-11-18T05:50:31;96523.66;;;8.21;92.73
22104;BME280;11218;48.886;9.426;2022-11-18T05:53:00;96528.53;;;8.14;93.67
22104;BME280;11218;48.886;9.426;2022-11-18T05:55:34;96532.53;;;8.12;93.10
22104;BME280;11218;48.886;9.426;2022-11-18T05:58:04;96526.66;;;8.10;92.89
22104;BME280;11218;48.886;9.426;2022-11-18T06:00:32;96529.88;;;8.07;93.18
22104;BME280;11218;48.886;9.426;2022-11-18T06:03:01;96528.28;;;8.06;93.33
22104;BME280;11218;48.886;9.426;2022-11-18T06:05:31;96530.41;;;8.09;93.39
22104;BME280;11218;48.886;9.426;2022-11-18T06:07:59;96536.81;;;8.13;93.83
22104;BME280;11218;48.886;9.426;2022-11-18T06:10:31;96531.19;;;8.14;93.72
22104;BME280;11218;48.886;9.426;2022-11-18T06:13:04;96534.69;;;8.10;93.58
22104;BME280;11218;48.886;9.426;2022-11-18T06:15:37;96541.94;;;8.09;93.25
22104;BME280;11218;48.886;9.426;2022-11-18T06:18:08;96548.09;;;8.15;93.21
22104;BME280;11218;48.886;9.426;2022-11-18T06:20:39;96552.38;;;8.11;93.45
22104;BME280;11218;48.886;9.426;2022-11-18T06:23:08;96553.19;;;8.06;92.36
22104;BME280;11218;48.886;9.426;2022-11-18T06:25:38;96553.19;;;8.06;93.11
22104;BME280;11218;48.886;9.426;2022-11-18T06:28:09;96555.31;;;8.09;93.01
22104;BME280;11218;48.886;9.426;2022-11-18T06:30:37;96556.66;;;8.07;92.66
22104;BME280;11218;48.886;9.426;2022-11-18T06:33:06;96566.31;;;8.08;93.70
22104;BME280;11218;48.886;9.426;2022-11-18T06:35:34;96558.81;;;8.05;93.19
22104;BME280;11218;48.886;9.426;2022-11-18T06:38:05;96560.41;;;8.06;92.96
22104;BME280;11218;48.886;9.426;2022-11-18T06:40:33;96562.84;;;8.02;93.37
22104;BME280;11218;48.886;9.426;2022-11-18T06:43:06;96575.97;;;8.04;93.28
22104;BME280;11218;48.886;9.426;2022-11-18T06:45:52;96554.53;;;7.99;93.93
22104;BME280;11218;48.886;9.426;2022-11-18T06:48:40;96568.47;;;8.01;94.24
22104;BME280;11218;48.886;9.426;2022-11-18T06:51:08;96578.91;;;8.02;94.05
22104;BME280;11218;48.886;9.426;2022-11-18T06:53:36;96580.78;;;8.02;94.46
22104;BME280;11218;48.886;9.426;2022-11-18T06:56:05;96581.31;;;8.04;94.61
22104;BME280;11218;48.886;9.426;2022-11-18T06:58:35;96578.09;;;8.12;93.50
22104;BME280;11218;48.886;9.426;2022-11-18T07:01:08;96582.38;;;8.08;93.69
22104;BME280;11218;48.886;9.426;2022-11-18T07:03:37;96586.16;;;8.07;92.71
22104;BME280;11218;48.886;9.426;2022-11-18T07:06:05;96588.56;;;8.08;93.22
22104;BME280;11218;48.886;9.426;2022-11-18T07:08:34;96605.44;;;8.14;92.96
22104;BME280;11218;48.886;9.426;2022-11-18T07:11:08;96607.03;;;8.15;93.69
22104;BME280;11218;48.886;9.426;2022-11-18T07:13:38;96596.56;;;8.18;91.95
22104;BME280;11218;48.886;9.426;2022-11-18T07:16:11;96607.56;;;8.17;92.13
22104;BME280;11218;48.886;9.426;2022-11-18T07:18:41;96607.56;;;8.17;92.10
22104;BME280;11218;48.886;9.426;2022-11-18T07:21:11;96609.72;;;8.15;91.96
22104;BME280;11218;48.886;9.426;2022-11-18T07:23:40;96614.28;;;8.14;92.51
22104;BME280;11218;48.886;9.426;2022-11-18T07:26:08;96611.88;;;8.13;91.95
22104;BME280;11218;48.886;9.426;2022-11-18T07:28:41;96622.31;;;8.14;91.94
22104;BME280;11218;48.886;9.426;2022-11-18T07:31:10;96617.75;;;8.15;92.73
22104;BME280;11218;48.886;9.426;2022-11-18T07:33:40;96619.63;;;8.14;92.07
22104;BME280;11218;48.886;9.426;2022-11-18T07:36:10;96625.00;;;8.14;92.47
22104;BME280;11218;48.886;9.426;2022-11-18T07:38:39;96632.19;;;8.19;92.81
22104;BME280;11218;48.886;9.426;2022-11-18T07:41:12;96631.69;;;8.17;93.08
22104;BME280;11218;48.886;9.426;2022-11-18T07:43:42;96638.94;;;8.16;92.18
22104;BME280;11218;48.886;9.426;2022-11-18T07:46:12;96649.34;;;8.23;91.82
22104;BME280;11218;48.886;9.426;2022-11-18T07:48:42;96649.88;;;8.20;91.86
22104;BME280;11218;48.886;9.426;2022-11-18T07:51:11;96663.56;;;8.18;93.53
22104;BME280;11218;48.886;9.426;2022-11-18T07:53:40;96661.97;;;8.12;93.19
22104;BME280;11218;48.886;9.426;2022-11-18T07:56:09;96664.94;;;8.16;93.31
22104;BME280;11218;48.886;9.426;2022-11-18T07:58:43;96660.09;;;8.08;93.23
22104;BME280;11218;48.886;9.426;2022-11-18T08:01:13;96673.50;;;8.08;94.09
22104;BME280;11218;48.886;9.426;2022-11-18T08:03:42;96656.34;;;7.99;94.44
22104;BME280;11218;48.886;9.426;2022-11-18T08:06:12;96663.84;;;8.02;94.61
22104;BME280;11218;48.886;9.426;2022-11-18T08:08:41;96669.19;;;7.97;94.72
22104;BME280;11218;48.886;9.426;2022-11-18T08:11:10;96676.44;;;8.01;94.75
22104;BME280;11218;48.886;9.426;2022-11-18T08:13:48;96675.38;;;8.02;95.80
22104;BME280;11218;48.886;9.426;2022-11-18T08:16:19;96681.00;;;8.06;95.69
22104;BME280;11218;48.886;9.426;2022-11-18T08:18:47;96672.69;;;8.02;95.57
22104;BME280;11218;48.886;9.426;2022-11-18T08:21:17;96685.81;;;8.04;96.22
22104;BME280;11218;48.886;9.426;2022-11-18T08:23:48;96686.09;;;8.02;95.30
